Time;durP1;ratioP1;P1;durP2;ratioP2;P2;SDS_P1;SDS_P2;PMS_P1;PMS_P2;Temp;Humidity;BMP_temperature;BMP_pressure;BME280_temperature;BME280_humidity;BME280_pressure;Samples;Min_cycle;Max_cycle;Signal;HPM_P1;HPM_P2
2022/04/18 00:02:09;;;;;;;12.47;7.30;;;6.90;99.90;;;;;;5076078;28;20544;-83
2022/04/18 00:04:35;;;;;;;13.33;6.70;;;7.10;99.90;;;;;;5075772;28;20268;-89
2022/04/18 00:07:01;;;;;;;11.27;7.43;;;7.20;99.90;;;;;;5076196;28;20192;-82
2022/04/18 00:09:29;;;;;;;13.60;7.03;;;7.20;99.90;;;;;;5057974;28;20179;-82
2022/04/18 00:11:54;;;;;;;14.07;7.17;;;7.30;99.90;;;;;;5076197;28;20419;-89
2022/04/18 00:14:20;;;;;;;9.73;6.20;;;7.30;99.90;;;;;;5058203;28;20422;-87
2022/04/18 00:16:45;;;;;;;10.27;6.10;;;7.20;99.90;;;;;;5075893;28;20223;-82
2022/04/18 00:19:11;;;;;;;11.70;5.73;;;7.20;99.90;;;;;;5075555;28;20647;-83
2022/04/18 00:21:36;;;;;;;10.87;5.93;;;7.20;99.90;;;;;;5057525;28;20173;-83
2022/04/18 00:24:02;;;;;;;10.70;5.77;;;6.90;99.90;;;;;;5057978;28;20174;-82
2022/04/18 00:26:27;;;;;;;6.50;4.60;;;6.70;1.00;;;;;;5058571;28;20169;-89
2022/04/18 00:28:53;;;;;;;11.63;6.17;;;6.80;1.00;;;;;;5057731;28;20587;-87
2022/04/18 00:31:18;;;;;;;7.90;6.10;;;6.70;1.00;;;;;;5076291;28;20216;-89
2022/04/18 00:33:44;;;;;;;11.40;5.53;;;6.70;1.00;;;;;;5075734;28;20203;-88
2022/04/18 00:36:09;;;;;;;9.80;5.43;;;6.40;1.00;;;;;;5058243;28;20633;-88
2022/04/18 00:38:35;;;;;;;8.97;4.60;;;6.30;1.00;;;;;;5076095;28;20244;-89
2022/04/18 00:41:00;;;;;;;9.97;5.40;;;6.00;1.00;;;;;;5058255;28;20910;-88
2022/04/18 00:43:52;;;;;;;7.73;4.90;;;5.80;99.90;;;;;;5075884;28;20214;-88
2022/04/18 00:46:19;;;;;;;10.87;6.53;;;5.70;1.00;;;;;;5070934;28;20258;-88
2022/04/18 00:48:46;;;;;;;11.33;7.20;;;5.70;1.00;;;;;;5074350;28;20407;-88
2022/04/18 00:51:14;;;;;;;15.63;8.27;;;5.70;7.10;;;;;;5057710;28;20749;-88
2022/04/18 00:53:42;;;;;;;12.77;6.43;;;5.60;99.90;;;;;;5057289;28;20464;-87
2022/04/18 00:56:13;;;;;;;14.17;6.77;;;5.60;99.90;;;;;;5075561;28;20452;-89
2022/04/18 00:58:41;;;;;;;15.50;7.50;;;5.70;1.00;;;;;;5070832;28;20997;-88
2022/04/18 01:01:07;;;;;;;10.50;6.83;;;5.70;99.90;;;;;;5055689;28;20419;-87
2022/04/18 01:03:33;;;;;;;11.80;7.40;;;5.70;1.00;;;;;;5074549;28;20428;-88
2022/04/18 01:06:00;;;;;;;11.40;6.60;;;5.70;1.00;;;;;;5075109;28;20622;-90
2022/04/18 01:08:28;;;;;;;12.50;7.30;;;5.80;99.90;;;;;;5057122;28;20672;-88
2022/04/18 01:10:53;;;;;;;13.40;8.47;;;5.70;1.00;;;;;;5075114;28;20412;-85
2022/04/18 01:13:19;;;;;;;8.97;5.80;;;5.60;99.90;;;;;;5074463;28;20426;-88
2022/04/18 01:15:54;;;;;;;15.03;8.03;;;5.60;99.90;;;;;;5056965;28;20431;-85
2022/04/18 01:18:20;;;;;;;12.40;6.93;;;5.70;99.90;;;;;;5070619;28;20211;-87
2022/04/18 01:20:45;;;;;;;11.57;7.10;;;5.70;99.90;;;;;;5071207;28;20423;-87
2022/04/18 01:23:11;;;;;;;9.23;5.97;;;5.70;1.00;;;;;;5056266;28;20180;-86
2022/04/18 01:31:21;;;;;;;9.17;6.47;;;5.20;1.00;;;;;;5075535;28;20457;-90
2022/04/18 01:33:46;;;;;;;13.50;7.60;;;5.10;1.00;;;;;;5057133;28;20420;-89
2022/04/18 01:36:14;;;;;;;10.43;5.93;;;5.00;1.00;;;;;;5075200;28;20576;-89
2022/04/18 01:38:40;;;;;;;13.87;7.80;;;4.80;1.00;;;;;;5057312;28;20583;-87
2022/04/18 01:41:05;;;;;;;10.10;6.73;;;4.80;1.00;;;;;;5057059;28;20416;-87
2022/04/18 01:43:31;;;;;;;10.20;6.43;;;4.80;1.00;;;;;;5074676;28;20581;-88
2022/04/18 01:45:56;;;;;;;11.80;6.63;;;4.70;1.00;;;;;;5056685;28;20217;-90
2022/04/18 01:48:22;;;;;;;9.43;6.53;;;4.50;1.00;;;;;;5056767;28;20252;-90
2022/04/18 01:50:47;;;;;;;14.37;6.37;;;4.50;1.00;;;;;;5056913;28;20631;-89
2022/04/18 01:53:13;;;;;;;8.87;6.83;;;4.40;1.00;;;;;;5075070;28;20180;-90
2022/04/18 01:55:38;;;;;;;10.10;6.43;;;4.40;1.00;;;;;;5074647;28;20180;-89
2022/04/18 01:58:05;;;;;;;11.60;6.50;;;4.40;1.00;;;;;;5074419;28;20212;-88
2022/04/18 02:00:32;;;;;;;10.93;7.03;;;4.40;1.00;;;;;;5055394;28;20180;-89
2022/04/18 02:02:58;;;;;;;7.53;5.27;;;4.40;1.00;;;;;;5074108;28;20506;-89
2022/04/18 02:05:23;;;;;;;11.80;7.10;;;4.40;16.40;;;;;;5074396;28;20435;-88
2022/04/18 02:07:52;;;;;;;11.17;7.00;;;4.40;32.60;;;;;;5075660;28;20633;-89
2022/04/18 02:10:18;;;;;;;13.93;6.97;;;4.50;84.30;;;;;;5058579;28;20173;-88
2022/04/18 02:12:43;;;;;;;8.07;6.63;;;4.50;97.30;;;;;;5074020;28;20456;-88
2022/04/18 02:15:09;;;;;;;9.20;6.40;;;4.50;75.40;;;;;;5073795;28;20201;-88
2022/04/18 02:17:35;;;;;;;9.00;5.63;;;4.50;93.60;;;;;;5055860;28;20204;-88
2022/04/18 02:20:00;;;;;;;12.53;7.73;;;4.40;72.00;;;;;;5073919;28;20426;-87
2022/04/18 02:22:27;;;;;;;13.63;7.10;;;4.30;40.40;;;;;;5055831;28;20267;-88
2022/04/18 02:24:56;;;;;;;10.23;6.70;;;4.30;25.50;;;;;;5073662;28;20203;-86
2022/04/18 02:27:21;;;;;;;10.17;7.13;;;4.30;48.70;;;;;;5073160;28;20415;-86
2022/04/18 02:29:46;;;;;;;11.00;7.37;;;4.30;60.90;;;;;;5073172;28;20492;-86
2022/04/18 02:34:56;;;;;;;12.50;6.53;;;4.20;54.10;;;;;;5053367;28;20192;-86
2022/04/18 02:37:22;;;;;;;13.17;8.00;;;4.10;93.20;;;;;;5052809;28;20473;-87
2022/04/18 02:39:47;;;;;;;11.03;7.03;;;4.10;99.90;;;;;;5035290;28;20309;-86
2022/04/18 02:42:13;;;;;;;11.73;8.60;;;4.10;99.90;;;;;;5053867;28;20668;-89
2022/04/18 02:44:38;;;;;;;8.87;7.03;;;3.90;99.90;;;;;;5035841;28;20329;-85
2022/04/18 02:47:04;;;;;;;11.47;6.23;;;3.80;99.90;;;;;;5035673;28;20258;-89
2022/04/18 02:49:31;;;;;;;10.30;6.97;;;3.80;99.90;;;;;;5036188;28;20264;-89
2022/04/18 02:51:56;;;;;;;10.17;7.03;;;3.80;99.90;;;;;;5036143;28;20170;-88
2022/04/18 02:54:22;;;;;;;11.57;7.80;;;3.80;99.90;;;;;;5053789;28;20429;-89
2022/04/18 02:56:47;;;;;;;14.23;7.80;;;3.70;99.90;;;;;;5053675;28;20227;-88
2022/04/18 02:59:13;;;;;;;9.23;7.07;;;3.70;99.90;;;;;;5035928;28;20282;-89
2022/04/18 03:01:38;;;;;;;11.83;7.70;;;3.60;99.90;;;;;;5035908;28;20178;-86
2022/04/18 03:04:04;;;;;;;9.60;7.07;;;3.60;99.90;;;;;;5053067;28;20180;-89
2022/04/18 03:06:29;;;;;;;7.60;5.13;;;3.50;99.90;;;;;;5035904;28;20586;-87
2022/04/18 03:08:55;;;;;;;9.90;7.10;;;3.50;99.90;;;;;;5035629;28;20595;-88
2022/04/18 03:11:20;;;;;;;17.10;8.20;;;3.40;99.90;;;;;;5035659;28;20261;-89
2022/04/18 03:13:46;;;;;;;10.20;6.77;;;3.40;99.90;;;;;;5035763;28;20165;-87
2022/04/18 03:16:13;;;;;;;9.70;6.53;;;3.40;99.90;;;;;;5053446;28;20170;-88
2022/04/18 03:18:39;;;;;;;9.70;7.60;;;3.30;99.90;;;;;;5052780;28;20521;-88
2022/04/18 03:21:05;;;;;;;8.23;6.20;;;3.40;99.90;;;;;;5053065;28;20411;-86
2022/04/18 03:23:31;;;;;;;10.87;7.00;;;3.40;99.90;;;;;;5053297;28;20412;-89
2022/04/18 03:25:57;;;;;;;10.27;6.80;;;3.30;99.90;;;;;;5035081;28;20451;-88
2022/04/18 03:28:23;;;;;;;10.77;7.53;;;3.40;99.90;;;;;;5053050;28;20763;-89
2022/04/18 03:30:49;;;;;;;7.93;6.20;;;3.50;99.90;;;;;;5035508;28;20176;-89
2022/04/18 03:33:15;;;;;;;7.00;6.33;;;3.50;99.90;;;;;;5062225;28;20430;-86
2022/04/18 03:39:50;;;;;;;10.10;7.03;;;3.60;99.90;;;;;;5073294;28;20617;-89
2022/04/18 03:41:18;;;;;;;12.17;7.10;;;3.50;99.90;;;;;;5073684;28;20399;-90
2022/04/18 03:43:43;;;;;;;9.40;6.10;;;3.20;99.90;;;;;;5055204;28;20427;-87
2022/04/18 03:46:09;;;;;;;10.60;7.00;;;3.20;99.90;;;;;;5072948;28;20451;-88
2022/04/18 03:48:37;;;;;;;11.53;6.27;;;3.10;99.90;;;;;;5072698;28;20182;-89
2022/04/18 03:51:03;;;;;;;9.37;6.00;;;3.10;99.90;;;;;;5072909;28;20174;-89
2022/04/18 03:53:28;;;;;;;11.83;7.57;;;3.10;99.90;;;;;;5054925;28;20962;-87
2022/04/18 03:55:54;;;;;;;10.53;7.10;;;3.10;99.90;;;;;;5072975;28;20177;-87
2022/04/18 03:58:19;;;;;;;10.57;8.00;;;3.20;99.90;;;;;;5072766;28;20669;-88
2022/04/18 04:00:45;;;;;;;14.30;8.93;;;3.10;99.90;;;;;;5054823;28;20238;-87
2022/04/18 04:03:11;;;;;;;11.50;8.13;;;3.10;99.90;;;;;;5072444;28;20203;-87
2022/04/18 04:05:38;;;;;;;14.47;9.13;;;3.00;99.90;;;;;;5054568;28;20529;-87
2022/04/18 04:08:04;;;;;;;16.53;9.53;;;3.00;99.90;;;;;;5072247;28;20419;-86
2022/04/18 04:10:29;;;;;;;15.50;7.40;;;3.00;99.90;;;;;;5072393;28;20410;-87
2022/04/18 04:12:58;;;;;;;19.67;9.57;;;3.00;99.90;;;;;;5072261;28;20403;-88
2022/04/18 04:15:23;;;;;;;18.00;9.77;;;3.00;99.90;;;;;;5054325;28;20559;-85
2022/04/18 04:17:49;;;;;;;17.10;9.60;;;2.90;99.90;;;;;;5071736;28;20526;-86
2022/04/18 04:20:14;;;;;;;16.50;9.47;;;2.90;99.90;;;;;;5054242;28;20431;-88
2022/04/18 04:22:44;;;;;;;15.33;9.10;;;3.00;99.90;;;;;;5054562;28;20193;-86
2022/04/18 04:25:09;;;;;;;13.50;8.43;;;2.90;99.90;;;;;;5075700;28;20360;-88
2022/04/18 04:27:35;;;;;;;10.53;7.97;;;2.90;99.90;;;;;;5075805;28;20545;-88
2022/04/18 04:30:00;;;;;;;14.37;8.67;;;2.90;99.90;;;;;;5076117;28;20169;-89
2022/04/18 04:32:26;;;;;;;15.43;8.60;;;2.80;99.90;;;;;;5075826;28;20589;-89
2022/04/18 04:34:51;;;;;;;16.23;8.87;;;2.70;99.90;;;;;;5058399;28;20184;-89
2022/04/18 04:37:17;;;;;;;11.40;8.23;;;2.70;99.90;;;;;;5058374;28;20196;-88
2022/04/18 04:39:43;;;;;;;13.43;8.27;;;2.80;99.90;;;;;;5075828;28;20180;-90
2022/04/18 04:42:08;;;;;;;14.13;8.03;;;2.70;99.90;;;;;;5058524;28;20208;-89
2022/04/18 04:44:34;;;;;;;17.20;9.90;;;2.80;99.90;;;;;;5075850;28;20217;-89
2022/04/18 04:46:59;;;;;;;10.90;8.17;;;2.80;99.90;;;;;;5057624;28;20177;-90
2022/04/18 04:49:25;;;;;;;11.50;9.07;;;2.90;99.90;;;;;;5076093;28;20252;-89
2022/04/18 04:51:50;;;;;;;9.40;7.90;;;2.90;99.90;;;;;;5076328;28;20173;-90
2022/04/18 04:54:16;;;;;;;10.40;7.27;;;2.90;99.90;;;;;;5058357;28;20208;-87
2022/04/18 04:56:42;;;;;;;12.63;8.07;;;2.90;99.90;;;;;;5058176;28;20580;-92
2022/04/18 04:59:08;;;;;;;12.67;8.43;;;3.00;99.90;;;;;;5058319;28;20181;-90
2022/04/18 05:01:33;;;;;;;13.47;8.57;;;3.10;99.90;;;;;;5075433;28;20215;-90
2022/04/18 05:03:59;;;;;;;12.10;8.70;;;3.20;99.90;;;;;;5075910;28;20776;-91
2022/04/18 05:06:25;;;;;;;11.90;8.27;;;3.20;99.90;;;;;;5057883;28;20531;-89
2022/04/18 05:08:50;;;;;;;10.37;7.57;;;3.30;99.90;;;;;;5057729;28;20173;-90
2022/04/18 05:11:16;;;;;;;10.27;7.20;;;3.40;99.90;;;;;;5057449;28;20306;-90
2022/04/18 05:13:41;;;;;;;9.47;6.60;;;3.60;99.90;;;;;;5057592;28;20177;-90
2022/04/18 05:16:07;;;;;;;11.07;5.43;;;3.80;99.90;;;;;;5075262;28;20169;-87
2022/04/18 05:18:32;;;;;;;9.83;7.07;;;4.10;99.90;;;;;;5037804;28;20615;-89
2022/04/18 05:20:58;;;;;;;8.37;5.80;;;4.40;99.90;;;;;;5036749;28;20181;-89
2022/04/18 05:23:24;;;;;;;8.70;5.70;;;5.30;99.90;;;;;;5054463;28;20174;-88
2022/04/18 05:25:52;;;;;;;10.80;5.73;;;5.80;1.00;;;;;;5053823;28;20252;-87
2022/04/18 05:28:18;;;;;;;9.30;6.37;;;6.20;1.00;;;;;;5037010;28;20465;-89
2022/04/18 05:30:43;;;;;;;8.17;6.57;;;6.80;1.00;;;;;;5054569;28;20409;-88
2022/04/18 05:33:09;;;;;;;12.40;7.10;;;7.50;99.90;;;;;;5054383;28;20661;-90
2022/04/18 05:35:34;;;;;;;12.20;8.40;;;7.90;99.90;;;;;;5054468;28;20287;-89
2022/04/18 05:38:00;;;;;;;11.67;7.30;;;8.10;1.00;;;;;;5054140;28;20201;-89
2022/04/18 05:40:26;;;;;;;15.23;7.67;;;8.30;1.00;;;;;;5054779;28;20167;-89
2022/04/18 05:42:51;;;;;;;17.50;8.80;;;8.40;95.60;;;;;;5054503;28;20224;-89
2022/04/18 05:45:17;;;;;;;15.37;10.20;;;8.60;1.00;;;;;;5054545;28;20305;-89
2022/04/18 05:47:42;;;;;;;14.27;9.80;;;9.10;99.90;;;;;;5054104;28;20265;-89
2022/04/18 05:50:08;;;;;;;13.50;9.80;;;9.60;99.90;;;;;;5036586;28;20585;-90
2022/04/18 05:55:09;;;;;;;11.10;7.90;;;10.30;99.90;;;;;;5241309;22;20235;-90
2022/04/18 05:57:35;;;;;;;13.30;7.43;;;10.70;99.90;;;;;;5056341;28;20490;-88
2022/04/18 06:00:01;;;;;;;10.27;6.90;;;10.70;99.90;;;;;;5074031;28;20173;-88
2022/04/18 06:02:26;;;;;;;10.60;6.50;;;11.40;99.90;;;;;;5055840;28;20970;-89
2022/04/18 06:04:53;;;;;;;11.30;7.27;;;12.00;95.70;;;;;;5073899;28;20292;-89
2022/04/18 06:07:18;;;;;;;9.77;6.50;;;12.80;54.90;;;;;;5056080;28;20178;-88
2022/04/18 06:09:44;;;;;;;8.30;5.87;;;13.40;31.40;;;;;;5073863;28;20425;-89
2022/04/18 06:12:09;;;;;;;7.97;5.00;;;14.40;10.90;;;;;;5055959;28;20617;-88
2022/04/18 06:14:35;;;;;;;6.00;4.57;;;14.70;1.00;;;;;;5055894;28;20322;-88
2022/04/18 06:17:00;;;;;;;10.53;5.80;;;15.10;1.00;;;;;;5055453;28;20573;-88
2022/04/18 06:19:26;;;;;;;6.20;4.67;;;14.90;1.00;;;;;;5055677;28;20187;-89
2022/04/18 06:21:51;;;;;;;6.07;4.63;;;15.40;1.00;;;;;;5055636;28;20572;-89
2022/04/18 06:24:18;;;;;;;6.13;4.73;;;16.00;1.00;;;;;;5055686;28;20184;-87
2022/04/18 06:26:44;;;;;;;7.50;4.70;;;16.40;1.00;;;;;;5055788;28;20618;-87
2022/04/18 06:29:10;;;;;;;7.30;6.13;;;16.40;1.00;;;;;;5074653;28;20504;-87
2022/04/18 06:31:35;;;;;;;7.67;4.57;;;17.10;1.00;;;;;;5074659;28;20449;-86
2022/04/18 06:34:01;;;;;;;7.67;5.50;;;17.10;1.00;;;;;;5086267;28;20176;-87
2022/04/18 06:36:26;;;;;;;7.10;5.73;;;16.80;1.00;;;;;;5068981;28;20176;-87
2022/04/18 06:38:52;;;;;;;5.90;5.10;;;16.70;1.00;;;;;;5085038;28;20285;-88
2022/04/18 06:41:17;;;;;;;7.00;4.80;;;17.10;1.00;;;;;;5067197;28;20173;-87
2022/04/18 06:43:43;;;;;;;6.50;4.70;;;17.50;1.00;;;;;;5060242;28;20630;-85
2022/04/18 06:46:08;;;;;;;5.80;4.77;;;17.50;1.00;;;;;;5054706;28;20259;-86
2022/04/18 06:48:34;;;;;;;7.50;5.47;;;17.60;1.00;;;;;;5072832;28;20170;-87
2022/04/18 06:50:59;;;;;;;8.63;5.63;;;17.70;1.00;;;;;;5055285;28;20538;-87
2022/04/18 06:53:25;;;;;;;8.00;5.40;;;16.50;1.00;;;;;;5072873;28;20692;-86
2022/04/18 06:58:34;;;;;;;7.27;5.50;;;17.70;1.00;;;;;;5073246;28;20222;-87
2022/04/18 07:01:01;;;;;;;5.83;5.23;;;16.80;1.00;;;;;;5073282;28;20986;-88
2022/04/18 07:03:27;;;;;;;7.17;5.70;;;17.50;1.00;;;;;;5054830;28;20536;-86
2022/04/18 07:05:52;;;;;;;6.13;4.47;;;17.50;1.00;;;;;;5055413;28;20427;-88
2022/04/18 07:08:18;;;;;;;7.27;5.23;;;18.50;1.00;;;;;;5055493;28;20178;-88
2022/04/18 07:10:43;;;;;;;6.73;4.50;;;18.10;1.00;;;;;;5058751;28;20678;-89
2022/04/18 07:13:09;;;;;;;7.97;5.20;;;18.70;1.00;;;;;;5073538;28;20182;-90
2022/04/18 07:15:38;;;;;;;6.20;5.07;;;18.40;1.00;;;;;;5073381;28;20172;-88
2022/04/18 07:18:04;;;;;;;6.17;5.20;;;18.70;1.00;;;;;;5054685;28;20580;-91
2022/04/18 07:20:32;;;;;;;6.70;5.00;;;19.30;1.00;;;;;;5055796;28;20431;-91
2022/04/18 07:22:57;;;;;;;6.73;5.60;;;18.60;1.00;;;;;;5073816;28;20426;-91
2022/04/18 07:25:23;;;;;;;6.47;5.70;;;19.80;1.00;;;;;;5073273;28;20428;-92
2022/04/18 07:27:49;;;;;;;5.47;4.40;;;20.30;1.00;;;;;;5073233;28;20186;-91
2022/04/18 07:30:14;;;;;;;7.50;5.40;;;19.60;1.00;;;;;;5073321;28;20198;-91
2022/04/18 07:32:42;;;;;;;7.63;5.73;;;20.00;1.00;;;;;;5073098;28;20175;-91
2022/04/18 07:35:09;;;;;;;6.27;5.13;;;20.40;1.00;;;;;;5073636;28;20206;-91
2022/04/18 07:37:35;;;;;;;6.40;5.43;;;20.40;1.00;;;;;;5073104;28;20461;-91
2022/04/18 07:40:00;;;;;;;7.90;5.50;;;20.50;1.00;;;;;;5073348;28;20417;-88
2022/04/18 07:42:34;;;;;;;6.70;5.30;;;21.00;1.00;;;;;;5072594;28;20418;-93
2022/04/18 07:45:00;;;;;;;6.63;5.93;;;20.80;1.00;;;;;;5055237;28;20213;-89
2022/04/18 07:47:25;;;;;;;7.13;5.47;;;20.10;1.00;;;;;;5072138;28;20445;-91
2022/04/18 07:49:51;;;;;;;8.80;6.10;;;20.70;1.00;;;;;;5055089;28;20168;-91
2022/04/18 07:52:16;;;;;;;7.77;5.63;;;20.50;1.00;;;;;;5055515;28;20176;-90
2022/04/18 07:54:42;;;;;;;6.43;5.10;;;19.70;1.00;;;;;;5072713;28;20283;-89
2022/04/18 07:57:07;;;;;;;6.33;4.60;;;20.40;1.00;;;;;;5055855;28;20199;-90
2022/04/18 07:59:33;;;;;;;6.00;4.53;;;20.70;1.00;;;;;;5057903;28;20191;-87
2022/04/18 08:01:58;;;;;;;6.80;5.23;;;21.70;1.00;;;;;;5074916;28;20289;-87
2022/04/18 08:04:23;;;;;;;5.67;4.53;;;22.00;1.00;;;;;;5075408;28;20191;-87
2022/04/18 08:06:49;;;;;;;7.93;6.20;;;20.60;1.00;;;;;;5075725;28;20216;-87
2022/04/18 08:09:14;;;;;;;7.30;6.03;;;22.20;1.00;;;;;;5076991;28;20217;-87
2022/04/18 08:11:40;;;;;;;8.03;6.20;;;22.00;1.00;;;;;;5071210;28;20553;-87
2022/04/18 08:14:06;;;;;;;6.90;5.57;;;22.60;1.00;;;;;;5055713;28;20653;-88
2022/04/18 08:16:31;;;;;;;8.60;6.00;;;22.00;1.00;;;;;;5074945;28;20162;-88
2022/04/18 08:18:57;;;;;;;6.40;5.20;;;22.30;1.00;;;;;;5057542;28;20215;-88
2022/04/18 08:21:22;;;;;;;5.87;4.70;;;22.30;1.00;;;;;;5057710;28;20637;-89
2022/04/18 08:23:52;;;;;;;9.37;5.27;;;21.30;1.00;;;;;;5075535;28;20201;-87
2022/04/18 08:26:19;;;;;;;8.27;5.47;;;22.30;1.00;;;;;;5075246;28;20187;-87
2022/04/18 08:28:47;;;;;;;8.00;6.20;;;21.50;1.00;;;;;;5075564;28;20418;-87
2022/04/18 08:31:13;;;;;;;7.60;5.80;;;21.00;1.00;;;;;;5074760;28;20414;-87
2022/04/18 08:33:39;;;;;;;10.13;7.40;;;21.30;1.00;;;;;;5075443;28;20426;-87
2022/04/18 08:36:05;;;;;;;7.50;6.60;;;21.30;1.00;;;;;;5057319;28;20505;-87
2022/04/18 08:38:30;;;;;;;8.37;6.73;;;21.70;1.00;;;;;;5075420;28;20467;-87
2022/04/18 08:40:58;;;;;;;8.07;6.43;;;22.10;1.00;;;;;;5075393;28;20169;-88
2022/04/18 08:43:23;;;;;;;8.97;7.00;;;21.20;1.00;;;;;;5075166;28;20193;-87
2022/04/18 08:45:49;;;;;;;8.70;5.87;;;22.00;1.00;;;;;;5074999;28;20924;-87
2022/04/18 08:53:46;;;;;;;7.50;5.90;;;22.00;1.00;;;;;;5075165;28;20512;-87
2022/04/18 08:56:11;;;;;;;9.40;6.27;;;21.10;1.00;;;;;;5074776;28;21069;-87
2022/04/18 08:58:37;;;;;;;7.37;5.80;;;22.40;1.00;;;;;;5056990;28;20745;-89
2022/04/18 09:01:03;;;;;;;8.20;5.53;;;23.10;1.00;;;;;;5056737;28;20256;-89
2022/04/18 09:03:29;;;;;;;7.00;6.07;;;21.90;1.00;;;;;;5075070;28;20180;-88
2022/04/18 09:06:12;;;;;;;7.47;4.63;;;22.10;1.00;;;;;;5056817;28;20433;-88
2022/04/18 09:08:51;;;;;;;9.73;6.07;;;22.50;1.00;;;;;;5074034;28;20184;-88
2022/04/18 09:11:27;;;;;;;7.87;5.37;;;21.70;1.00;;;;;;5056694;28;20479;-89
2022/04/18 09:14:02;;;;;;;8.27;5.80;;;22.70;1.00;;;;;;5074446;28;20414;-88
2022/04/18 09:16:29;;;;;;;5.60;5.00;;;22.50;1.00;;;;;;5074206;28;20415;-88
2022/04/18 09:19:12;;;;;;;5.87;4.93;;;22.80;1.00;;;;;;5074465;28;20481;-88
2022/04/18 09:21:42;;;;;;;6.20;5.60;;;23.50;1.00;;;;;;5074377;28;20411;-88
2022/04/18 09:24:24;;;;;;;6.50;5.87;;;22.50;1.00;;;;;;5074360;28;20472;-87
2022/04/18 09:26:52;;;;;;;6.70;5.10;;;21.60;1.00;;;;;;5074241;28;20915;-88
2022/04/18 09:29:18;;;;;;;7.07;5.53;;;22.90;1.00;;;;;;5056390;28;20578;-88
2022/04/18 09:31:47;;;;;;;6.60;5.10;;;21.70;1.00;;;;;;5056031;28;20500;-88
2022/04/18 09:34:19;;;;;;;5.83;5.00;;;22.50;1.00;;;;;;5074092;28;20254;-89
2022/04/18 09:36:44;;;;;;;6.20;5.60;;;22.80;1.00;;;;;;5074186;28;20410;-87
2022/04/18 09:39:10;;;;;;;5.93;5.33;;;23.60;1.00;;;;;;5056274;28;20967;-88
2022/04/18 09:41:35;;;;;;;6.77;6.00;;;23.20;1.00;;;;;;5074117;28;20172;-88
2022/04/18 09:44:01;;;;;;;5.40;4.90;;;23.00;1.00;;;;;;5056142;28;20653;-88
2022/04/18 09:46:27;;;;;;;6.83;5.20;;;23.30;1.00;;;;;;5055812;28;20176;-88
2022/04/18 09:48:59;;;;;;;5.50;4.90;;;23.50;1.00;;;;;;5056126;28;20170;-90
2022/04/18 09:51:29;;;;;;;6.37;5.70;;;23.10;1.00;;;;;;5074037;28;20248;-90
2022/04/18 09:53:58;;;;;;;5.90;5.30;;;22.90;1.00;;;;;;5073774;28;20955;-87
2022/04/18 09:56:26;;;;;;;5.50;5.00;;;23.30;1.00;;;;;;5073551;28;20784;-89
2022/04/18 09:58:55;;;;;;;6.00;5.00;;;22.90;1.00;;;;;;5055182;28;20524;-90
2022/04/18 10:01:22;;;;;;;6.50;5.67;;;23.60;1.00;;;;;;5073470;28;20425;-88
2022/04/18 10:03:52;;;;;;;6.77;5.00;;;23.20;1.00;;;;;;5073628;28;20447;-89
2022/04/18 10:06:18;;;;;;;6.67;5.07;;;24.10;1.00;;;;;;5073456;28;20907;-88
2022/04/18 10:08:44;;;;;;;6.53;5.70;;;23.20;1.00;;;;;;5055441;28;20444;-88
2022/04/18 10:11:11;;;;;;;6.00;5.40;;;23.00;1.00;;;;;;5073496;28;20415;-89
2022/04/18 10:13:37;;;;;;;6.37;4.90;;;23.70;1.00;;;;;;5073380;28;20162;-88
2022/04/18 10:16:04;;;;;;;5.20;4.70;;;24.20;1.00;;;;;;5073048;28;20449;-89
2022/04/18 10:18:40;;;;;;;6.50;4.50;;;23.50;1.00;;;;;;5073042;28;20489;-88
2022/04/18 10:21:15;;;;;;;5.20;4.60;;;23.20;1.00;;;;;;5054231;28;20780;-88
2022/04/18 10:24:07;;;;;;;5.67;4.97;;;23.10;1.00;;;;;;5073230;28;20778;-89
2022/04/18 10:27:07;;;;;;;6.20;5.00;;;23.30;1.00;;;;;;5054275;28;20999;-88
2022/04/18 10:29:39;;;;;;;6.83;5.00;;;23.60;1.00;;;;;;5073114;28;20801;-89
2022/04/18 10:32:07;;;;;;;6.17;5.33;;;22.90;1.00;;;;;;5072676;28;20422;-88
2022/04/18 10:34:34;;;;;;;5.60;4.73;;;22.70;1.00;;;;;;5073135;28;20458;-89
2022/04/18 10:37:02;;;;;;;8.13;5.57;;;23.40;1.00;;;;;;5055123;28;20419;-88
2022/04/18 10:39:33;;;;;;;7.20;5.53;;;23.20;1.00;;;;;;5072993;28;20415;-90
2022/04/18 10:42:18;;;;;;;5.33;4.30;;;23.80;1.00;;;;;;5067999;28;20435;-88
2022/04/18 10:44:58;;;;;;;6.93;5.00;;;23.10;1.00;;;;;;5052978;28;20958;-88
2022/04/18 10:47:24;;;;;;;5.83;4.83;;;24.00;1.00;;;;;;5052744;28;20404;-89
2022/04/18 10:50:15;;;;;;;7.57;5.27;;;24.20;1.00;;;;;;5053038;28;20446;-90
2022/04/18 10:52:40;;;;;;;5.53;5.00;;;24.10;1.00;;;;;;5035089;28;20177;-88
2022/04/18 10:55:17;;;;;;;6.40;4.77;;;24.60;1.00;;;;;;5036719;28;20463;-88
2022/04/18 10:57:42;;;;;;;5.60;4.60;;;24.60;1.00;;;;;;5072734;28;20197;-89
2022/04/18 11:00:09;;;;;;;5.87;4.70;;;24.00;1.00;;;;;;5054974;28;20442;-89
2022/04/18 11:02:42;;;;;;;5.43;4.40;;;24.40;1.00;;;;;;5054513;28;20173;-90
2022/04/18 11:05:08;;;;;;;5.00;3.93;;;24.80;1.00;;;;;;5072918;28;20420;-90
2022/04/18 11:07:42;;;;;;;8.50;4.57;;;23.70;1.00;;;;;;5072905;28;20411;-88
2022/04/18 11:10:21;;;;;;;5.20;3.93;;;24.10;1.00;;;;;;5072833;28;20434;-89
2022/04/18 11:12:47;;;;;;;5.23;4.10;;;24.00;1.00;;;;;;5072797;28;20399;-88
2022/04/18 11:15:13;;;;;;;5.70;3.63;;;23.80;1.00;;;;;;5072639;28;20418;-89
2022/04/18 11:17:42;;;;;;;4.80;3.80;;;24.20;1.00;;;;;;5054204;28;20470;-90
2022/04/18 11:20:28;;;;;;;5.50;3.30;;;23.90;1.00;;;;;;5054621;28;20415;-88
2022/04/18 11:23:27;;;;;;;5.80;4.23;;;24.10;1.00;;;;;;5072704;28;20572;-89
2022/04/18 11:25:54;;;;;;;6.10;3.97;;;23.60;1.00;;;;;;5054539;28;20449;-89
2022/04/18 11:28:20;;;;;;;5.10;3.50;;;23.80;1.00;;;;;;5072483;28;20505;-89
2022/04/18 11:30:48;;;;;;;4.30;3.80;;;23.20;1.00;;;;;;5072221;28;20419;-88
2022/04/18 11:33:14;;;;;;;4.40;3.30;;;23.40;1.00;;;;;;5075529;28;20208;-89
2022/04/18 11:35:39;;;;;;;4.17;2.93;;;24.20;1.00;;;;;;5076466;28;20451;-88
2022/04/18 11:38:10;;;;;;;5.40;3.53;;;23.40;1.00;;;;;;5076670;28;20183;-89
2022/04/18 11:40:40;;;;;;;4.63;2.70;;;24.30;1.00;;;;;;5058671;28;20222;-89
2022/04/18 11:43:15;;;;;;;4.33;2.80;;;23.90;1.00;;;;;;5058401;28;20520;-87
2022/04/18 11:45:41;;;;;;;4.53;3.10;;;24.00;1.00;;;;;;5055861;28;20930;-89
2022/04/18 11:48:07;;;;;;;4.33;2.77;;;23.70;1.00;;;;;;5076455;28;20565;-89
2022/04/18 11:50:36;;;;;;;3.70;2.20;;;24.40;1.00;;;;;;5058855;28;20466;-89
2022/04/18 11:53:03;;;;;;;4.17;3.00;;;24.30;1.00;;;;;;5075156;28;20755;-89
2022/04/18 11:55:30;;;;;;;3.70;2.50;;;24.40;1.00;;;;;;5076408;28;20498;-89
2022/04/18 11:57:56;;;;;;;4.50;3.00;;;24.00;1.00;;;;;;5058185;28;20411;-89
2022/04/18 12:08:39;;;;;;;2.80;1.53;;;23.60;1.00;;;;;;5078039;28;21029;-88
2022/04/18 12:11:05;;;;;;;2.70;1.73;;;22.70;1.00;;;;;;5070701;28;20454;-89
2022/04/18 12:13:31;;;;;;;2.20;1.73;;;22.80;1.00;;;;;;5057684;28;20177;-89
2022/04/18 12:15:59;;;;;;;2.50;1.47;;;23.40;1.00;;;;;;5075593;28;20693;-89
2022/04/18 12:18:25;;;;;;;3.40;1.80;;;23.20;1.00;;;;;;5075700;28;20438;-89
2022/04/18 12:20:54;;;;;;;2.50;1.90;;;22.70;1.00;;;;;;5075815;28;20411;-89
2022/04/18 12:23:23;;;;;;;2.40;1.57;;;22.20;1.00;;;;;;5127135;22;20619;-89
2022/04/18 12:25:51;;;;;;;3.33;2.07;;;21.80;1.00;;;;;;5075768;28;20454;-87
2022/04/18 12:28:20;;;;;;;3.30;1.77;;;22.20;1.00;;;;;;5075446;28;20476;-87
2022/04/18 12:30:46;;;;;;;3.30;2.03;;;22.50;1.00;;;;;;5075230;28;20422;-87
2022/04/18 12:33:25;;;;;;;3.40;1.40;;;22.60;1.00;;;;;;5075572;28;20426;-88
2022/04/18 12:35:52;;;;;;;1.90;1.37;;;22.60;1.00;;;;;;5075436;28;20418;-88
2022/04/18 12:38:20;;;;;;;2.10;1.43;;;23.30;1.00;;;;;;5075323;28;20760;-87
2022/04/18 12:40:53;;;;;;;2.90;2.10;;;23.40;1.00;;;;;;5073344;28;20411;-87
2022/04/18 12:43:19;;;;;;;3.03;2.00;;;23.20;1.00;;;;;;5074369;28;20418;-87
2022/04/18 12:45:58;;;;;;;4.80;1.33;;;23.10;1.00;;;;;;5074738;28;20424;-88
2022/04/18 12:48:32;;;;;;;2.57;1.43;;;22.80;1.00;;;;;;5075335;28;20212;-88
2022/04/18 12:50:59;;;;;;;3.33;1.80;;;21.90;1.00;;;;;;5075496;28;20408;-88
2022/04/18 12:53:51;;;;;;;2.50;1.93;;;22.10;1.00;;;;;;5075167;28;20422;-87
2022/04/18 12:56:22;;;;;;;2.07;1.30;;;22.00;1.00;;;;;;5075058;28;20510;-87
2022/04/18 12:59:09;;;;;;;3.80;2.37;;;22.50;1.00;;;;;;5075210;28;20406;-90
2022/04/18 13:01:39;;;;;;;1.77;1.37;;;22.80;1.00;;;;;;5057074;28;20427;-87
2022/04/18 13:04:18;;;;;;;2.07;1.87;;;21.70;1.00;;;;;;5075317;28;20396;-88
2022/04/18 13:06:53;;;;;;;2.80;2.00;;;22.50;1.00;;;;;;5057497;28;20488;-88
2022/04/18 13:09:19;;;;;;;2.50;2.20;;;23.10;1.00;;;;;;5075288;28;20466;-88
2022/04/18 13:11:45;;;;;;;2.67;2.00;;;22.40;1.00;;;;;;5057130;28;20423;-88
2022/04/18 13:14:13;;;;;;;2.77;1.50;;;22.10;1.00;;;;;;5057083;28;20180;-87
2022/04/18 13:16:40;;;;;;;6.13;1.83;;;22.50;1.00;;;;;;5074735;28;20422;-88
2022/04/18 13:19:17;;;;;;;3.07;1.53;;;22.50;1.00;;;;;;5075387;28;20411;-89
2022/04/18 13:21:47;;;;;;;2.10;1.60;;;21.90;1.00;;;;;;5075216;28;20524;-87
2022/04/18 13:24:13;;;;;;;2.83;1.87;;;22.20;1.00;;;;;;5056800;28;20471;-87
2022/04/18 13:26:38;;;;;;;2.97;1.50;;;21.80;1.00;;;;;;5074619;28;20437;-86
2022/04/18 13:29:05;;;;;;;2.30;1.43;;;21.50;1.00;;;;;;5074414;28;20208;-88